Overview Statistics Trail Chart Weather Telemetry Raw packets
 

This is the latest recevied weather packets stored in our database for station/object OM6ACB-6. If no packets are shown the sender has not sent any weather packets the latest 10 day(s).

<< 9 10 11 12 13 14 15 >>
Time Temp. Humidity Pressure Rain* Wind** Luminosity Snow
1788506119 21.11° C 22% 1023.1 hPa 0 mm - - -
1788505519 19.44° C 23% 1022.7 hPa 0 mm - - -
1788504919 19.44° C 23% 1022.7 hPa 0 mm - - -
1788504319 16.67° C 24% 1022.5 hPa 0 mm - - -
1788503718 16.11° C 24% 1022.3 hPa 0 mm - - -
1788503118 15.56° C 25% 1022.2 hPa 0 mm - - -
1788502518 15.56° C 25% 1022.1 hPa 0 mm - - -
1788501917 15° C 25% 1022 hPa 0 mm - - -
1788501317 14.44° C 25% 1022 hPa 0 mm - - -
1788500717 13.89° C 26% 1022 hPa 0 mm - - -
1788500116 13.89° C 26% 1022 hPa 0 mm - - -
1788499516 13.33° C 26% 1021.8 hPa 0 mm - - -
1788498916 13.33° C 26% 1021.7 hPa 0 mm - - -
1788498316 12.78° C 26% 1021.7 hPa 0 mm - - -
1788497715 12.22° C 28% 1021.6 hPa 0 mm - - -
1788497115 12.22° C 26% 1021.6 hPa 0 mm - - -
1788496515 12.22° C 26% 1021.5 hPa 0 mm - - -
1788495914 12.22° C 27% 1021.5 hPa 0 mm - - -
1788495314 11.67° C 30% 1021.4 hPa 0 mm - - -
1788494714 11.67° C 30% 1021.5 hPa 0 mm - - -
1788494114 11.67° C 28% 1021.5 hPa 0 mm - - -
1788493513 11.67° C 31% 1021.3 hPa 0 mm - - -
1788492913 11.11° C 36% 1021.3 hPa 0 mm - - -
1788492313 11.11° C 35% 1021.4 hPa 0 mm - - -
1788491712 11.11° C 37% 1021.4 hPa 0 mm - - -

* Rain latest hour (hover to see other rain measurements)
** Current wind speed in m/s (hover to see current wind gust speed)